createdAt,value
2019-02-17T00:01:24.032Z,72.34
2019-02-17T00:03:54.027Z,72.74
2019-02-17T00:06:23.994Z,72.87
2019-02-17T00:08:54.898Z,72.83
2019-02-17T00:11:24.854Z,72.98
2019-02-17T00:13:54.811Z,73.26
2019-02-17T00:16:24.760Z,73.64
2019-02-17T00:18:54.721Z,73.72
2019-02-17T00:21:24.684Z,73.62
2019-02-17T00:23:54.572Z,73.46
2019-02-17T00:26:24.604Z,73.17
2019-02-17T00:28:59.378Z,72.84
2019-02-17T00:31:26.490Z,72.76
2019-02-17T00:33:56.763Z,72.84
2019-02-17T00:36:26.715Z,73.13
2019-02-17T00:38:56.665Z,73.17
2019-02-17T00:41:26.611Z,72.96
2019-02-17T00:44:01.634Z,72.92
2019-02-17T00:46:31.921Z,72.99
2019-02-17T00:49:01.869Z,72.82
2019-02-17T00:51:32.176Z,72.87
2019-02-17T00:54:02.791Z,72.44
2019-02-17T00:56:32.760Z,72.53
2019-02-17T00:59:09.753Z,72.59
2019-02-17T01:01:34.296Z,72.87
2019-02-17T01:04:04.607Z,73.00
2019-02-17T01:06:34.551Z,73.34
2019-02-17T01:09:06.689Z,73.81
2019-02-17T01:11:36.699Z,73.69
2019-02-17T01:14:06.650Z,73.71
2019-02-17T01:16:36.633Z,73.84
2019-02-17T01:19:06.609Z,73.87
2019-02-17T01:21:36.892Z,73.79
2019-02-17T01:24:07.150Z,73.82
2019-02-17T01:26:37.017Z,73.90
2019-02-17T01:29:06.964Z,73.96
2019-02-17T01:31:36.832Z,73.98
2019-02-17T01:34:10.615Z,74.09
2019-02-17T01:36:40.564Z,73.98
2019-02-17T01:39:10.799Z,73.98
2019-02-17T01:41:40.754Z,74.09
2019-02-17T01:44:10.982Z,74.21
2019-02-17T01:46:41.278Z,74.34
2019-02-17T01:49:11.819Z,74.03
2019-02-17T01:51:41.772Z,73.75
2019-02-17T01:54:11.970Z,73.87
2019-02-17T01:56:41.976Z,73.98
2019-02-17T01:59:13.034Z,74.16
2019-02-17T02:01:43.068Z,74.51
2019-02-17T02:04:13.305Z,74.43
2019-02-17T02:06:43.259Z,74.15
2019-02-17T02:09:13.327Z,74.28
2019-02-17T02:11:43.291Z,74.36
2019-02-17T02:14:13.170Z,74.50
2019-02-17T02:16:43.058Z,74.57
2019-02-17T02:19:13.000Z,74.56
2019-02-17T02:21:43.237Z,74.50
2019-02-17T02:24:13.169Z,74.50
2019-02-17T02:26:43.120Z,74.28
2019-02-17T02:29:13.345Z,74.47
2019-02-17T02:31:43.316Z,74.58
2019-02-17T02:34:13.270Z,74.69
2019-02-17T02:36:43.225Z,74.60
2019-02-17T02:39:13.167Z,74.65
2019-02-17T02:41:43.123Z,74.74
2019-02-17T02:44:13.730Z,74.64
2019-02-17T02:46:43.689Z,74.57
2019-02-17T02:49:13.560Z,74.66
2019-02-17T02:51:43.568Z,74.52
2019-02-17T02:54:13.525Z,74.63
2019-02-17T02:56:43.475Z,74.47
2019-02-17T02:59:13.429Z,74.65
2019-02-17T03:01:43.385Z,74.90
2019-02-17T03:04:13.333Z,74.85
2019-02-17T03:06:47.535Z,74.85
2019-02-17T03:09:18.707Z,74.98
2019-02-17T03:11:48.659Z,75.16
2019-02-17T03:14:18.752Z,75.16
2019-02-17T03:16:49.021Z,74.85
2019-02-17T03:19:19.347Z,74.91
2019-02-17T03:21:49.717Z,74.71
2019-02-17T03:24:19.935Z,75.04
2019-02-17T03:26:50.160Z,75.11
2019-02-17T03:29:20.106Z,75.22
2019-02-17T03:31:49.929Z,75.31
2019-02-17T03:34:19.804Z,75.46
2019-02-17T03:36:49.804Z,75.26
2019-02-17T03:39:19.758Z,75.31
2019-02-17T03:41:49.709Z,75.36
2019-02-17T03:44:19.667Z,75.36
2019-02-17T03:46:50.189Z,75.44
2019-02-17T03:49:20.133Z,75.44
2019-02-17T03:51:50.676Z,75.44
2019-02-17T03:54:20.561Z,75.39
2019-02-17T03:56:50.563Z,75.55
2019-02-17T03:59:20.655Z,75.52
2019-02-17T04:01:50.651Z,75.45
2019-02-17T04:04:21.839Z,75.43
2019-02-17T04:06:51.790Z,75.00
2019-02-17T04:09:21.755Z,74.75
2019-02-17T04:11:52.025Z,74.82
2019-02-17T04:14:21.988Z,75.05
2019-02-17T04:16:52.537Z,75.39
2019-02-17T04:19:22.547Z,75.22
2019-02-17T04:21:52.507Z,75.29
2019-02-17T04:24:22.399Z,75.36
2019-02-17T04:26:52.416Z,75.13
2019-02-17T04:29:22.386Z,75.04
2019-02-17T04:31:52.299Z,75.14
2019-02-17T04:34:22.266Z,75.19
2019-02-17T04:36:52.229Z,75.38
2019-02-17T04:39:22.380Z,75.57
2019-02-17T04:41:52.265Z,75.69
2019-02-17T04:44:22.515Z,75.64
2019-02-17T04:46:52.766Z,75.67
2019-02-17T04:49:22.949Z,75.97
2019-02-17T04:51:52.913Z,76.25
2019-02-17T04:54:22.872Z,76.33
2019-02-17T04:56:52.762Z,76.41
2019-02-17T04:59:22.921Z,76.73
2019-02-17T05:01:52.802Z,76.74
2019-02-17T05:04:22.799Z,76.57
2019-02-17T05:06:53.829Z,76.33
2019-02-17T05:09:23.717Z,76.16
2019-02-17T05:11:54.336Z,75.94
2019-02-17T05:14:24.121Z,75.99
2019-02-17T05:16:54.052Z,75.85
2019-02-17T05:19:23.942Z,75.96
2019-02-17T05:21:53.915Z,76.23
2019-02-17T05:24:23.810Z,76.55
2019-02-17T05:26:53.790Z,76.72
2019-02-17T05:29:23.761Z,76.75
2019-02-17T05:31:55.222Z,76.53
2019-02-17T05:34:25.420Z,76.52
2019-02-17T05:36:55.219Z,76.54
2019-02-17T05:39:25.505Z,76.60
2019-02-17T05:41:55.318Z,76.75
2019-02-17T05:44:25.277Z,76.65
2019-02-17T05:46:55.107Z,76.74
2019-02-17T05:49:25.073Z,76.86
2019-02-17T05:51:55.118Z,76.95
2019-02-17T05:54:25.246Z,76.95
2019-02-17T05:56:55.233Z,76.92
2019-02-17T05:59:25.411Z,76.94
2019-02-17T06:01:55.366Z,77.01
2019-02-17T06:04:25.321Z,77.20
2019-02-17T06:06:55.556Z,77.36
2019-02-17T06:09:25.425Z,77.53
2019-02-17T06:11:55.323Z,77.66
2019-02-17T06:14:25.215Z,77.60
2019-02-17T06:16:55.017Z,77.87
2019-02-17T06:19:24.899Z,77.89
2019-02-17T06:21:54.773Z,78.03
2019-02-17T06:24:24.733Z,78.17
2019-02-17T06:26:54.684Z,78.17
2019-02-17T06:29:24.662Z,78.07
2019-02-17T06:31:54.617Z,78.17
2019-02-17T06:34:24.794Z,78.17
2019-02-17T06:36:54.759Z,78.21
2019-02-17T06:39:24.721Z,77.97
2019-02-17T06:41:54.548Z,78.14
2019-02-17T06:44:24.760Z,77.99
2019-02-17T06:47:05.711Z,77.92
2019-02-17T06:49:35.849Z,77.98
2019-02-17T06:52:05.786Z,77.76
2019-02-17T06:54:35.618Z,77.64
2019-02-17T06:57:15.838Z,77.88
2019-02-17T06:59:45.701Z,77.78
2019-02-17T07:02:16.023Z,77.71
2019-02-17T07:05:05.160Z,77.71
2019-02-17T07:07:35.459Z,77.72
2019-02-17T07:10:05.968Z,77.82
2019-02-17T07:12:36.099Z,77.88
2019-02-17T07:15:06.064Z,78.03
2019-02-17T07:17:35.870Z,78.08
2019-02-17T07:20:06.565Z,78.17
2019-02-17T07:22:36.370Z,78.25
2019-02-17T07:25:06.443Z,78.38
2019-02-17T07:27:36.945Z,78.59
2019-02-17T07:30:08.439Z,78.83
2019-02-17T07:32:38.453Z,78.97
2019-02-17T07:35:08.809Z,79.11
2019-02-17T07:37:38.744Z,79.27
2019-02-17T07:40:08.883Z,79.54
2019-02-17T07:42:39.317Z,79.66
2019-02-17T07:45:09.422Z,79.76
2019-02-17T07:47:39.583Z,79.84
2019-02-17T07:50:09.866Z,79.79
2019-02-17T07:52:40.788Z,79.88
2019-02-17T07:55:11.093Z,79.99
2019-02-17T07:57:41.676Z,79.98
2019-02-17T08:00:11.941Z,79.86
2019-02-17T08:02:41.896Z,79.94
2019-02-17T08:05:12.196Z,79.99
2019-02-17T08:07:42.148Z,79.95
2019-02-17T08:10:12.550Z,79.84
2019-02-17T08:12:42.502Z,79.82
2019-02-17T08:15:12.454Z,79.92
2019-02-17T08:17:42.318Z,79.85
2019-02-17T08:20:12.269Z,79.47
2019-02-17T08:22:42.233Z,79.21
2019-02-17T08:25:21.600Z,79.09
2019-02-17T08:27:43.841Z,79.06
2019-02-17T08:30:13.834Z,79.06
2019-02-17T08:32:44.310Z,78.97
2019-02-17T08:35:14.487Z,78.70
2019-02-17T08:37:44.480Z,78.74
2019-02-17T08:40:14.380Z,78.85
2019-02-17T08:42:44.238Z,78.71
2019-02-17T08:45:14.562Z,78.56
2019-02-17T08:47:44.732Z,78.09
2019-02-17T08:50:14.606Z,77.78
2019-02-17T08:52:44.960Z,77.75
2019-02-17T08:55:15.265Z,77.62
2019-02-17T08:57:45.210Z,77.55
2019-02-17T09:00:15.166Z,77.14
2019-02-17T09:02:45.438Z,76.50
2019-02-17T09:05:15.414Z,76.00
2019-02-17T09:07:46.037Z,75.66
2019-02-17T09:10:16.301Z,75.46
2019-02-17T09:12:47.388Z,75.30
2019-02-17T09:15:17.573Z,75.33
2019-02-17T09:17:47.556Z,74.94
2019-02-17T09:20:17.436Z,74.47
2019-02-17T09:22:47.417Z,74.13
2019-02-17T09:25:17.382Z,73.78
2019-02-17T09:27:47.257Z,73.52
2019-02-17T09:30:18.224Z,73.27
2019-02-17T09:32:48.189Z,72.89
2019-02-17T09:35:18.418Z,72.85
2019-02-17T09:37:48.631Z,72.65
2019-02-17T09:40:18.593Z,72.08
2019-02-17T09:42:48.599Z,71.75
2019-02-17T09:45:18.572Z,71.56
2019-02-17T09:47:48.523Z,71.73
2019-02-17T09:50:18.403Z,71.48
2019-02-17T09:52:48.273Z,71.39
2019-02-17T09:55:18.232Z,70.91
2019-02-17T09:57:48.182Z,70.54
2019-02-17T10:00:18.157Z,70.07
2019-02-17T10:02:48.105Z,70.26
2019-02-17T10:05:18.122Z,69.69
2019-02-17T10:07:48.091Z,69.09
2019-02-17T10:10:18.446Z,68.69
2019-02-17T10:12:48.674Z,68.50
2019-02-17T10:15:18.643Z,67.77
2019-02-17T10:17:48.704Z,67.55
2019-02-17T10:20:18.663Z,67.54
2019-02-17T10:22:48.961Z,67.02
2019-02-17T10:25:18.861Z,66.84
2019-02-17T10:27:48.849Z,66.24
2019-02-17T10:30:19.240Z,65.88
2019-02-17T10:32:49.298Z,65.33
2019-02-17T10:35:19.658Z,64.44
2019-02-17T10:37:49.770Z,63.40
2019-02-17T10:40:19.845Z,62.29
2019-02-17T10:42:49.802Z,61.39
2019-02-17T10:45:19.847Z,61.77
2019-02-17T10:47:49.829Z,61.34
2019-02-17T10:50:19.897Z,61.20
2019-02-17T10:52:49.895Z,61.07
2019-02-17T10:55:19.995Z,60.60
2019-02-17T10:57:49.984Z,59.14
2019-02-17T11:00:20.027Z,59.10
2019-02-17T11:02:50.365Z,58.78
2019-02-17T11:05:20.312Z,58.08
2019-02-17T11:07:51.215Z,57.28
2019-02-17T11:10:21.192Z,56.82
2019-02-17T11:12:51.245Z,55.83
2019-02-17T11:15:21.548Z,56.64
2019-02-17T11:17:51.513Z,55.83
2019-02-17T11:20:21.464Z,56.10
2019-02-17T11:22:51.428Z,55.44
2019-02-17T11:25:22.521Z,54.15
2019-02-17T11:27:52.793Z,54.55
2019-02-17T11:30:22.836Z,54.23
2019-02-17T11:32:58.084Z,53.82
2019-02-17T11:35:24.249Z,52.37
2019-02-17T11:37:54.245Z,52.32
2019-02-17T11:40:24.218Z,52.61
2019-02-17T11:42:54.210Z,51.59
2019-02-17T11:45:24.198Z,51.87
2019-02-17T11:47:54.166Z,51.81
2019-02-17T11:50:24.084Z,51.68
2019-02-17T11:52:54.452Z,52.05
2019-02-17T11:55:24.343Z,51.95
2019-02-17T11:57:54.860Z,52.31
2019-02-17T12:00:24.826Z,51.60
2019-02-17T12:02:54.861Z,51.68
2019-02-17T12:05:24.819Z,51.61
2019-02-17T12:07:55.065Z,50.75
2019-02-17T12:10:25.374Z,50.45
2019-02-17T12:12:55.407Z,49.76
2019-02-17T12:15:25.363Z,48.57
2019-02-17T12:17:55.380Z,48.29
2019-02-17T12:20:51.624Z,48.39
2019-02-17T12:23:34.837Z,47.76
2019-02-17T12:26:27.042Z,46.43
2019-02-17T12:29:05.418Z,46.48
2019-02-17T12:31:37.759Z,46.22
2019-02-17T12:34:07.723Z,46.25
2019-02-17T12:36:37.695Z,46.39
2019-02-17T12:39:09.548Z,46.63
2019-02-17T12:41:39.513Z,45.83
2019-02-17T12:44:09.464Z,45.77
2019-02-17T12:46:39.499Z,46.24
2019-02-17T12:49:09.449Z,45.86
2019-02-17T12:51:39.664Z,45.86
2019-02-17T12:54:09.637Z,45.92
2019-02-17T12:56:39.606Z,45.51
2019-02-17T12:59:09.588Z,45.82
2019-02-17T13:01:39.577Z,45.84
2019-02-17T13:04:09.567Z,45.24
2019-02-17T13:06:39.515Z,45.58
2019-02-17T13:09:10.451Z,45.73
2019-02-17T13:11:40.546Z,45.46
2019-02-17T13:14:10.555Z,44.98
2019-02-17T13:16:41.087Z,45.31
2019-02-17T13:19:11.035Z,45.37
2019-02-17T13:21:41.021Z,45.35
2019-02-17T13:24:10.971Z,44.39
2019-02-17T13:26:41.273Z,45.58
2019-02-17T13:29:11.593Z,45.31
2019-02-17T13:31:41.791Z,44.65
2019-02-17T13:34:12.783Z,44.10
2019-02-17T13:36:42.753Z,43.00
2019-02-17T13:39:12.707Z,43.16
2019-02-17T13:41:42.782Z,43.01
2019-02-17T13:44:12.830Z,43.41
2019-02-17T13:46:42.812Z,42.98
2019-02-17T13:49:12.804Z,42.68
2019-02-17T13:51:43.462Z,41.84
2019-02-17T13:54:13.678Z,41.35
2019-02-17T13:56:43.668Z,41.44
2019-02-17T13:59:13.599Z,41.51
2019-02-17T14:01:43.574Z,41.05
2019-02-17T14:04:13.568Z,41.58
2019-02-17T14:06:43.568Z,40.86
2019-02-17T14:09:13.867Z,41.17
2019-02-17T14:11:44.244Z,40.70
2019-02-17T14:14:14.260Z,40.83
2019-02-17T14:16:44.254Z,40.35
2019-02-17T14:19:15.625Z,39.51
2019-02-17T14:21:47.082Z,39.84
2019-02-17T14:24:18.031Z,39.40
2019-02-17T14:26:48.001Z,38.42
2019-02-17T14:29:18.328Z,38.14
2019-02-17T14:31:48.606Z,37.72
2019-02-17T14:34:18.730Z,37.36
2019-02-17T14:36:48.632Z,36.98
2019-02-17T14:39:18.896Z,36.83
2019-02-17T14:41:48.907Z,37.00
2019-02-17T14:44:18.886Z,37.48
2019-02-17T14:46:48.860Z,37.59
2019-02-17T14:49:18.858Z,37.52
2019-02-17T14:51:48.823Z,37.51
2019-02-17T14:54:18.730Z,37.08
2019-02-17T14:56:48.907Z,37.77
2019-02-17T14:59:18.902Z,37.25
2019-02-17T15:01:48.917Z,36.86
2019-02-17T15:04:18.937Z,36.86
2019-02-17T15:06:49.147Z,36.30
2019-02-17T15:09:19.849Z,36.30
2019-02-17T15:11:51.589Z,35.99
2019-02-17T15:14:21.795Z,35.25
2019-02-17T15:16:53.080Z,35.25
2019-02-17T15:19:24.134Z,35.41
2019-02-17T15:21:54.408Z,35.54
2019-02-17T15:24:24.694Z,35.74
2019-02-17T15:26:54.568Z,35.95
2019-02-17T15:29:24.534Z,36.25
2019-02-17T15:31:54.526Z,37.24
2019-02-17T15:34:24.511Z,38.52
2019-02-17T15:36:54.719Z,38.49
2019-02-17T15:39:24.743Z,39.13
2019-02-17T15:41:54.912Z,39.72
2019-02-17T15:44:24.786Z,39.81
2019-02-17T15:46:55.079Z,40.08
2019-02-17T15:49:26.027Z,40.73
2019-02-17T15:51:55.989Z,42.14
2019-02-17T15:54:25.907Z,42.30
2019-02-17T15:56:55.869Z,42.96
2019-02-17T15:59:26.090Z,42.76
2019-02-17T16:01:56.148Z,43.08
2019-02-17T16:04:28.522Z,43.42
2019-02-17T16:06:58.122Z,43.91
2019-02-17T16:09:28.018Z,44.59
2019-02-17T16:11:58.351Z,45.18
2019-02-17T16:14:28.607Z,45.49
2019-02-17T16:16:58.502Z,45.59
2019-02-17T16:19:28.395Z,45.88
2019-02-17T16:21:58.364Z,45.91
2019-02-17T16:24:28.321Z,46.15
2019-02-17T16:26:58.745Z,46.63
2019-02-17T16:29:28.627Z,46.90
2019-02-17T16:31:58.709Z,47.49
2019-02-17T16:34:37.845Z,48.15
2019-02-17T16:37:00.363Z,48.82
2019-02-17T16:39:30.830Z,48.42
2019-02-17T16:42:00.795Z,49.51
2019-02-17T16:44:30.788Z,49.63
2019-02-17T16:47:00.758Z,49.24
2019-02-17T16:49:30.750Z,49.30
2019-02-17T16:52:00.951Z,49.60
2019-02-17T16:54:30.884Z,49.85
2019-02-17T16:57:00.877Z,50.44
2019-02-17T16:59:31.373Z,50.61
2019-02-17T17:02:01.639Z,50.57
2019-02-17T17:04:31.622Z,51.02
2019-02-17T17:07:01.612Z,51.35
2019-02-17T17:09:32.090Z,51.52
2019-02-17T17:12:02.347Z,51.60
2019-02-17T17:14:32.292Z,51.55
2019-02-17T17:17:02.855Z,51.25
2019-02-17T17:19:32.857Z,51.41
2019-02-17T17:22:02.809Z,51.94
2019-02-17T17:24:32.704Z,52.18
2019-02-17T17:27:02.677Z,52.64
2019-02-17T17:29:32.894Z,53.26
2019-02-17T17:32:02.910Z,53.64
2019-02-17T17:34:34.235Z,53.16
2019-02-17T17:37:04.316Z,53.12
2019-02-17T17:39:34.256Z,53.29
2019-02-17T17:42:04.269Z,53.01
2019-02-17T17:44:34.593Z,53.11
2019-02-17T17:47:06.145Z,53.29
2019-02-17T17:49:36.448Z,53.42
2019-02-17T17:52:06.440Z,53.70
2019-02-17T17:54:36.389Z,54.09
2019-02-17T17:57:06.376Z,54.24
2019-02-17T17:59:36.347Z,54.61
2019-02-17T18:02:06.401Z,54.33
2019-02-17T18:04:36.566Z,54.50
2019-02-17T18:07:06.889Z,55.04
2019-02-17T18:09:36.758Z,54.83
2019-02-17T18:12:06.645Z,54.56
2019-02-17T18:14:36.581Z,54.66
2019-02-17T18:17:06.528Z,55.16
2019-02-17T18:19:37.778Z,54.92
2019-02-17T18:22:08.021Z,54.67
2019-02-17T18:24:38.263Z,54.88
2019-02-17T18:27:08.625Z,55.05
2019-02-17T18:29:38.524Z,55.10
2019-02-17T18:32:08.465Z,55.12
2019-02-17T18:34:38.799Z,55.36
2019-02-17T18:37:09.026Z,55.79
2019-02-17T18:39:39.103Z,55.74
2019-02-17T18:42:09.484Z,55.83
2019-02-17T18:44:39.940Z,55.85
2019-02-17T18:47:09.952Z,55.96
2019-02-17T18:49:40.359Z,55.61
2019-02-17T18:52:11.090Z,55.70
2019-02-17T18:54:42.310Z,56.11
2019-02-17T18:57:13.072Z,55.94
2019-02-17T18:59:43.082Z,56.06
2019-02-17T19:02:12.978Z,56.12
2019-02-17T19:04:43.067Z,56.28
2019-02-17T19:07:13.049Z,56.47
2019-02-17T19:09:42.994Z,56.68
2019-02-17T19:12:13.456Z,57.10
2019-02-17T19:14:43.400Z,57.04
2019-02-17T19:17:13.317Z,57.35
2019-02-17T19:19:43.210Z,57.11
2019-02-17T19:22:13.242Z,57.01
2019-02-17T19:24:43.273Z,57.04
2019-02-17T19:27:13.286Z,56.77
2019-02-17T19:29:43.494Z,56.70
2019-02-17T19:32:13.468Z,56.77
2019-02-17T19:34:43.429Z,57.01
2019-02-17T19:37:14.769Z,57.08
2019-02-17T19:39:44.976Z,57.03
2019-02-17T19:42:15.845Z,57.20
2019-02-17T19:44:45.799Z,57.08
2019-02-17T19:47:15.764Z,57.30
2019-02-17T19:49:45.650Z,57.29
2019-02-17T19:52:15.622Z,57.30
2019-02-17T19:54:45.817Z,57.15
2019-02-17T19:57:16.036Z,57.12
2019-02-17T19:59:45.999Z,57.43
2019-02-17T20:02:17.927Z,57.76
2019-02-17T20:04:56.287Z,57.85
2019-02-17T20:07:26.348Z,58.51
2019-02-17T20:09:56.283Z,59.01
2019-02-17T20:12:27.561Z,59.37
2019-02-17T20:14:57.508Z,59.87
2019-02-17T20:17:27.412Z,60.30
2019-02-17T20:19:57.296Z,60.22
2019-02-17T20:22:27.556Z,60.36
2019-02-17T20:24:57.496Z,60.70
2019-02-17T20:27:27.380Z,60.75
2019-02-17T20:29:57.301Z,60.98
2019-02-17T20:32:27.341Z,60.76
2019-02-17T20:34:57.294Z,61.12
2019-02-17T20:37:27.180Z,61.03
2019-02-17T20:39:57.420Z,61.78
2019-02-17T20:42:27.304Z,61.77
2019-02-17T20:44:57.194Z,61.64
2019-02-17T20:47:27.321Z,61.83
2019-02-17T20:49:57.260Z,62.10
2019-02-17T20:52:27.668Z,61.97
2019-02-17T20:54:57.859Z,62.03
2019-02-17T20:57:27.827Z,62.27
2019-02-17T20:59:58.146Z,62.71
2019-02-17T21:02:28.096Z,62.85
2019-02-17T21:04:57.897Z,63.00
2019-02-17T21:07:28.227Z,63.29
2019-02-17T21:09:58.502Z,63.64
2019-02-17T21:12:30.523Z,63.11
2019-02-17T21:15:00.309Z,63.07
2019-02-17T21:17:30.645Z,63.02
2019-02-17T21:20:00.517Z,62.85
2019-02-17T21:22:30.730Z,63.30
2019-02-17T21:25:00.810Z,63.38
2019-02-17T21:27:30.849Z,63.35
2019-02-17T21:30:00.820Z,63.62
2019-02-17T21:32:30.941Z,63.79
2019-02-17T21:35:00.820Z,63.73
2019-02-17T21:37:31.184Z,63.42
2019-02-17T21:40:01.049Z,63.51
2019-02-17T21:42:31.261Z,63.85
2019-02-17T21:45:01.395Z,63.47
2019-02-17T21:47:32.637Z,62.86
2019-02-17T21:50:03.538Z,63.09
2019-02-17T21:52:33.549Z,63.28
2019-02-17T21:55:03.499Z,63.68
2019-02-17T21:57:33.836Z,62.98
2019-02-17T22:00:03.887Z,62.96
2019-02-17T22:02:34.923Z,62.77
2019-02-17T22:05:04.989Z,62.66
2019-02-17T22:07:35.204Z,62.25
2019-02-17T22:10:05.890Z,62.07
2019-02-17T22:12:35.749Z,62.00
2019-02-17T22:15:06.860Z,62.07
2019-02-17T22:17:37.197Z,62.37
2019-02-17T22:20:08.013Z,62.87
2019-02-17T22:22:38.193Z,62.60
2019-02-17T22:25:08.231Z,62.55
2019-02-17T22:27:38.235Z,62.30
2019-02-17T22:30:09.089Z,61.73
2019-02-17T22:32:38.956Z,61.53
2019-02-17T22:35:09.159Z,61.48
2019-02-17T22:37:39.105Z,61.63
2019-02-17T22:40:09.564Z,61.17
2019-02-17T22:42:39.976Z,60.83
2019-02-17T22:45:10.054Z,60.83
2019-02-17T22:47:40.094Z,60.68
2019-02-17T22:50:10.438Z,60.46
2019-02-17T22:52:40.383Z,61.15
2019-02-17T22:55:11.486Z,62.17
2019-02-17T22:57:41.444Z,61.81
2019-02-17T23:00:18.364Z,61.93
2019-02-17T23:02:50.060Z,62.25
2019-02-17T23:05:21.165Z,62.61
2019-02-17T23:07:51.848Z,62.67
2019-02-17T23:10:22.091Z,62.68
2019-02-17T23:12:52.218Z,63.00
2019-02-17T23:15:22.331Z,63.36
2019-02-17T23:17:52.315Z,63.59
2019-02-17T23:20:22.266Z,63.84
2019-02-17T23:22:52.224Z,63.45
2019-02-17T23:25:22.391Z,63.41
2019-02-17T23:27:52.372Z,63.84
2019-02-17T23:30:22.661Z,64.31
2019-02-17T23:32:52.613Z,64.43
2019-02-17T23:35:22.972Z,64.51
2019-02-17T23:37:52.925Z,64.23
2019-02-17T23:40:22.883Z,63.89
2019-02-17T23:42:53.067Z,64.03
2019-02-17T23:45:23.022Z,64.50
2019-02-17T23:47:52.974Z,64.56
2019-02-17T23:50:22.921Z,64.79
2019-02-17T23:52:54.555Z,64.79
2019-02-17T23:55:24.540Z,65.05
2019-02-17T23:57:54.408Z,65.34
